2017 Coniston 14 Mile

1171 results found. Perform another search | Print these results

Race Number First Name Surname Gender Gender Position Category Category Position Club Gun Time Overall Position Chip Time Chip Position Tweet Share
545 Eleanor Fowler Female 2 F35+ 1 NUNEATON HARRIERS 01:31:30 40 01:31:28 40
639 Jenny Featherstone Female 5 F35+ 2 TOTLEY ATHLETIC CLUB 01:35:38 74 01:35:35 74
1095 Lindsey Clegg Female 7 F35+ 3 HORSFORTH HARRIERS 01:37:05 82 01:37:00 82
183 Elaine Bisson Female 8 F35+ 4 ELVET STRIDERS 01:37:48 86 01:37:45 86
508 Ann Gould Female 27 F35+ 5 HOLME PIERREPONT RC 01:46:57 187 01:46:26 185
1083 Cathy Ayton Female 28 F35+ 6 ILKESTON RUNNING CLUB 01:47:09 190 01:46:55 189
571 Julia Hughes Female 36 F35+ 7 01:49:22 228 01:48:36 223
1043 Claire Fowler Female 38 F35+ 8 01:49:47 233 01:47:42 201
337 Kim Anderson Female 50 F35+ 9 WALNEY WIND CHEETAHS 01:52:18 274 01:52:11 290
597 Sarah Plint Female 58 F35+ 10 LAUDERDALE LIMPERS 01:54:00 313 01:53:23 319
1024 Catherine Eaton Female 60 F35+ 11 TYNE BRIDGE HARRIERS 01:54:08 319 01:53:52 332
52 Joscelin Tracey Female 73 F35+ 12 01:57:22 380 01:55:58 376
662 Kelly Temple Female 77 F35+ 13 YORK KNAVESMIRE HARRIERS 01:58:01 393 01:57:26 400
645 Roz Massey Female 80 F35+ 14 TOTLEY ATHLETIC CLUB 01:58:28 403 01:58:02 411
1468 Emma Marsh Female 88 F35+ 15 01:59:22 427 01:59:09 446
309 Maggie Wild Female 92 F35+ 16 COLT 01:59:47 439 01:59:11 447
14 Paula Robinson Female 95 F35+ 17 02:00:08 444 01:59:07 445
335 Jacqui Close Female 97 F35+ 18 02:00:44 455 01:58:34 429
756 Maria Steer Female 98 F35+ 19 WOLDS VETERANS RUNNING CLUB 02:00:48 456 02:00:37 475
1104 Rachael Berry Female 115 F35+ 20 02:02:57 503 02:02:44 527
42 Carol Bowett Female 125 F35+ 21 FENLAND RUNNING CLUB 02:04:15 531 02:03:39 543
828 Sarah Bouffler Female 129 F35+ 22 BARROW & FURNESS STRIDERS 02:04:33 538 02:03:52 548
59 Joanna Maddocks Female 138 F35+ 23 LYMM RUNNERS 02:06:57 579 02:06:26 596
637 Sarah Maisey Female 140 F35+ 24 SERPENTINE 02:07:07 582 02:05:19 577
649 Leanne Bayliff Female 142 F35+ 25 GLAXO HOAD HILL HARRIERS 02:07:27 590 02:06:47 606
554 Katie Lee Female 147 F35+ 26 02:07:39 598 02:07:26 612
1215 Sian Dempster Female 169 F35+ 27 CUMBERLAND AC 02:11:09 651 02:09:44 647
528 Joanne Perritt Female 175 F35+ 28 02:11:53 663 02:10:24 656
1058 Natalie Moore Female 181 F35+ 29 RED ROSE RUNNERS 02:12:53 680 02:11:46 677
1067 Louisa Connolly Female 182 F35+ 30 02:13:00 681 02:10:56 669
872 Laura Cameron Female 192 F35+ 31 DARWEN DASHERS 02:14:11 702 02:13:39 716
549 Deborah Yearnshire Female 198 F35+ 32 GLAXO HOAD HILL HARRIERS 02:14:39 711 02:13:59 720
126 Claire Onions Female 207 F35+ 33 02:16:12 743 02:14:25 734
567 Paulina Zub Female 220 F35+ 34 FENLAND RUNNING CLUB 02:17:29 771 02:15:54 767
599 Julie Hamilton Female 223 F35+ 35 SWINTON RUNNING CLUB 02:17:40 775 02:17:27 783
646 Jo Mclaren Female 231 F35+ 36 02:19:00 789 02:18:43 802
374 Lynda Thwaite Female 237 F35+ 37 02:19:49 804 02:19:27 816
1014 Laura-Jayne Waddington Female 240 F35+ 38 02:20:21 815 02:19:38 822
729 Helen Greenhalgh Female 241 F35+ 39 RED ROSE RUNNERS 02:20:23 816 02:18:53 810
1465 Lavinia Jones Female 243 F35+ 40 02:20:49 822 02:19:36 819
938 Kristina Woolcock Female 246 F35+ 41 CONISTON RUNNER 02:21:14 828 02:20:43 853
1450 Joanne Stewart Female 255 F35+ 42 DARLINGTON TRI 02:22:02 846 02:20:18 841
1464 Kathryn Cheshire Female 260 F35+ 43 02:22:31 863 02:21:25 866
966 Fiona Bannister Female 265 F35+ 44 02:23:11 872 02:22:51 886
1263 Melanie Lowe Female 275 F35+ 45 RED ROSE RUNNERS 02:24:08 887 02:23:00 888
255 Melissa Millward Female 277 F35+ 46 FENLAND RUNNING CLUB 02:24:26 892 02:22:51 885
831 Viki Walsh Female 279 F35+ 47 DARWEN DASHERS 02:25:00 897 02:24:28 905
1179 Laura Leigh Female 282 F35+ 48 WALNEY WIND CHEETAHS 02:25:38 903 02:24:23 904
54 Salina Askham Female 293 F35+ 49 02:27:04 921 02:25:47 920
810 Andrea Townsend Female 297 F35+ 50 02:28:11 931 02:26:03 927
1256 Helen Chaplin Female 300 F35+ 51 02:28:25 935 02:27:23 936
321 Rachel Stead Female 316 F35+ 52 PENNY LANE STRIDERS 02:31:01 963 02:30:01 965
822 Victoria Parkinson Female 331 F35+ 53 02:33:37 987 02:32:30 990
469 Joanne Gibney Female 333 F35+ 54 WOLDS VETERANS RUNNING CLUB 02:33:39 989 02:33:28 997
671 Rebecca Douglas Female 335 F35+ 55 02:33:54 991 02:31:54 986
624 Agnieszka Dudlik Female 339 F35+ 56 02:34:21 996 02:33:41 999
491 Joanne Clarke Female 344 F35+ 57 FENLAND RUNNING CLUB 02:35:58 1005 02:35:34 1009
1037 Susan Connolly Female 347 F35+ 58 02:36:54 1008 02:34:50 1005
783 Sandy Darlington Female 361 F35+ 59 02:38:05 1025 02:36:48 1023
723 Hayley Fryer Female 368 F35+ 60 02:39:49 1033 02:39:01 1035
980 Andrea Davison Female 396 F35+ 61 RED ROSE RUNNERS 02:46:41 1072 02:45:04 1067
1387 Jenni Szedler- Sloan Female 397 F35+ 62 RED ROSE RUNNERS 02:46:41 1073 02:45:04 1066
1002 Laura Ryan Female 401 F35+ 63 HORWICH RMI 02:47:29 1079 02:45:33 1075
181 Elisabeth Clayton Female 406 F35+ 64 WOLDS VETERANS RUNNING CLUB 02:49:07 1084 02:48:11 1085
1350 Sarah Park Female 408 F35+ 65 PARKSIDE PANTHERS 02:49:36 1088 02:49:08 1093
1423 Samira Saverio Female 416 F35+ 66 02:51:49 1100 02:49:52 1099
1100 Kerryann Maddock Female 418 F35+ 67 TRENTHAM RUNNING CLUB 02:52:31 1104 02:50:54 1103
1190 Leah Wood Female 421 F35+ 68 HADDINGTON RUNNING CLUB 02:52:35 1107 02:51:24 1105
924 Sian Mccourt Female 435 F35+ 69 WOLDS VETERANS RUNNING CLUB 02:57:11 1128 02:56:16 1128
396 Vicky Ford Female 447 F35+ 70 03:05:54 1146 03:04:03 1142
1462 Sarah Ridehaigh Female 9 F40+ 1 ACCRINGTON ROAD RUNNERS 01:38:13 89 01:38:10 92
207 Susan Fourie Female 12 F40+ 2 CHESTER TRIATHLON CLUB 01:41:19 124 01:41:11 126
1025 Jane Ashbrook Female 14 F40+ 3 HELSBY RUNNING CLUB 01:41:58 133 01:41:44 134
869 Elsie Roberts Female 17 F40+ 4 GLAXO HOAD HILL HARRIERS 01:43:41 149 01:43:35 151
1098 Janine Needham Female 29 F40+ 5 RED ROSE RUNNERS 01:47:14 191 01:47:06 194
1106 Janine Fallon Female 31 F40+ 6 DARWEN DASHERS 01:47:52 200 01:47:48 204
1130 Jane Reedy Female 34 F40+ 7 AMBLESIDE AC 01:49:01 220 01:48:53 231
1321 Nickey Russell Female 43 F40+ 8 BOWLAND FELL RUNNERS 01:51:20 254 01:50:56 266
1379 Tamsin Threlfall Female 44 F40+ 9 01:51:20 255 01:50:57 267
1296 Nicola Mellor Female 47 F40+ 10 01:51:40 263 01:51:13 269
643 Katherine Allen Female 62 F40+ 11 01:55:01 332 01:54:39 342
852 Liz Kerr Female 67 F40+ 12 01:55:47 353 01:55:28 361
853 Helen Maguire Female 71 F40+ 13 RIBBLE VALLEY AC 01:57:11 375 01:55:26 360
965 Joanne Beahan Female 84 F40+ 14 01:59:05 416 01:58:28 423
1475 Sharon Matthews Female 85 F40+ 15 01:59:06 417 01:58:44 433
24 Victoria Rose Female 89 F40+ 16 01:59:35 432 01:58:31 426
1295 Emma David Female 91 F40+ 17 NIDD VALLEY ROAD RUNNERS 01:59:47 438 01:58:27 422
623 Emma Elmerhebi Female 96 F40+ 18 MANCHESTER YMCA HARRIERS 02:00:29 450 02:00:04 462
432 Heather Travis Female 105 F40+ 19 GLAXO HOAD HILL HARRIERS 02:01:11 467 02:00:18 468
341 Anna Gray Female 106 F40+ 20 HOLME PIERREPONT RC 02:01:24 471 02:00:36 473
616 Julie Hunter Female 108 F40+ 21 GLAXO HOAD HILL HARRIERS 02:01:28 473 02:00:49 484
1129 Jo Sharp Female 112 F40+ 22 BLACKBURN ROAD RUNNERS 02:02:38 493 02:00:33 471
244 Nicky Jennings Female 117 F40+ 23 FENLAND RUNNING CLUB 02:03:07 509 02:02:31 524
304 Helen Young Female 120 F40+ 24 TOTLEY ATHLETIC CLUB 02:03:38 520 02:03:12 536
1208 Jennifer Rider Female 127 F40+ 25 02:04:22 534 02:02:48 529
303 Em Bissex Female 135 F40+ 26 PEGASUS RC 02:06:31 573 02:04:52 568
17 Jacqui Trudgill Female 139 F40+ 27 02:07:06 581 02:06:44 600
505 Catherine Duce Female 148 F40+ 28 FENLAND RUNNING CLUB 02:07:41 599 02:06:06 587
177 Sam Springthorpe Female 158 F40+ 29 MALTBY RC 02:09:14 621 02:07:59 623
584 Amanda Cable Female 162 F40+ 30 LOW FELL RUNNING CLUB 02:09:46 634 02:08:56 637